Terminal Aerodrome Forecast
Issued by NWS Cleveland, OH

Home | Current Version | Previous Version | Graphics & Text | Print | Product List | Glossary On
Versions: 1 2 3 4 5 6 7 8 9 10 11 12 13 14 15 16 17 18 19 20 21 22 23 24 25 26 27 28
000
FTUS41 KCLE 201400 AAA
TAFCLE
TAF AMD
KCLE 201456Z 2015/2118 24018G28KT P6SM SCT050
     FM202300 25015G25KT 4SM -SHSN BKN030
     FM210200 26012G20KT 2SM -SHSN OVC012
     FM210500 27012KT 1SM -SHSN OVC008
     FM211500 25010KT 3SM -SHSN OVC012=

USA.gov is the U.S. government's official web portal to all federal, state and local government web resources and services.